Bo Machete, Puerto Rico
Current Conditions -  °F | °C
As of 3:50 AM on Friday 21 Nov 2014 (Local Time) from TJPS Reporting Station
Clear Clear  
Wind Chill: 73°   Ceiling: Unl
Heat Index: 73°   Visibility: 10mi
Dew Point: 68°   Wind: 7mph
Humidity: 83%   Direction: 40°NE
Pressure: 29.94"   Gusts: NA
Location:  17.9849°N, 66.1175°W
Report Text: TJPS 210750Z 04006KT 10SM SKC 23/20 A2994
Loading
Personal Weather Stations






























Interactive Weather Map New forecast layout! Learn more

10-Day Weather Forecast

Advertisements
Track Severe Weather on mobile